createdAt,value
2022-12-04T00:01:13.065Z,38.79
2022-12-04T00:07:44.420Z,38.39
2022-12-04T00:14:07.982Z,38.95
2022-12-04T00:20:30.465Z,39.14
2022-12-04T00:27:02.423Z,38.95
2022-12-04T00:33:32.107Z,39.2
2022-12-04T00:40:06.415Z,39.12
2022-12-04T00:46:38.418Z,39.23
2022-12-04T00:53:05.194Z,39.23
2022-12-04T00:59:33.152Z,39.22
2022-12-04T01:06:11.705Z,39.22
2022-12-04T01:12:45.663Z,39.09
2022-12-04T01:19:14.011Z,39.01
2022-12-04T01:25:43.889Z,39.01
2022-12-04T01:32:22.491Z,38.96
2022-12-04T01:39:03.425Z,38.66
2022-12-04T01:45:34.818Z,39.05
2022-12-04T01:52:18.498Z,39.03
2022-12-04T01:59:08.489Z,38.88
2022-12-04T02:05:59.515Z,38.9
2022-12-04T02:12:41.232Z,38.81
2022-12-04T02:19:43.665Z,38.58
2022-12-04T02:26:51.552Z,38.6
2022-12-04T02:34:02.053Z,38.59
2022-12-04T02:41:08.386Z,38.56
2022-12-04T02:48:11.593Z,38.62
2022-12-04T02:55:09.223Z,38.6
2022-12-04T03:02:12.729Z,38.69
2022-12-04T03:09:17.588Z,38.49
2022-12-04T03:16:30.556Z,38.89
2022-12-04T03:23:32.288Z,39.09
2022-12-04T03:30:48.911Z,39.08
2022-12-04T03:37:52.106Z,39.04
2022-12-04T03:44:50.578Z,39.16
2022-12-04T03:52:07.500Z,39.13
2022-12-04T03:59:09.291Z,39.22
2022-12-04T04:05:56.480Z,39.11
2022-12-04T04:12:49.911Z,39.13
2022-12-04T04:19:54.270Z,39.08
2022-12-04T04:26:50.532Z,39.2
2022-12-04T04:33:35.273Z,39.25
2022-12-04T04:40:58.501Z,39.15
2022-12-04T04:48:02.052Z,39.19
2022-12-04T04:54:49.346Z,39.26
2022-12-04T05:01:27.230Z,39.34
2022-12-04T05:08:00.388Z,39.56
2022-12-04T05:14:28.847Z,38.64
2022-12-04T05:20:59.112Z,37.31
2022-12-04T05:27:28.830Z,36.5
2022-12-04T05:34:03.510Z,36.25
2022-12-04T05:40:44.399Z,35.54
2022-12-04T05:47:16.355Z,35.63
2022-12-04T05:53:49.273Z,35.35
2022-12-04T06:00:21.364Z,35.39
2022-12-04T06:07:00.230Z,35.68
2022-12-04T06:13:37.120Z,35.46
2022-12-04T06:20:25.835Z,35.72
2022-12-04T06:33:48.719Z,35.95
2022-12-04T06:40:24.800Z,35.85
2022-12-04T06:46:55.382Z,36.45
2022-12-04T06:53:26.626Z,36.31
2022-12-04T07:00:01.190Z,36.89
2022-12-04T07:06:32.265Z,36.94
2022-12-04T07:13:04.549Z,37.44
2022-12-04T07:19:29.295Z,37.61
2022-12-04T07:26:01.362Z,37.7
2022-12-04T07:32:35.624Z,37.97
2022-12-04T07:39:08.623Z,38.02
2022-12-04T07:45:38.623Z,37.87
2022-12-04T07:52:17.803Z,37.22
2022-12-04T07:58:50.585Z,36.94
2022-12-04T08:05:25.811Z,37.44
2022-12-04T08:11:50.208Z,37.9
2022-12-04T08:18:25.429Z,38.3
2022-12-04T08:24:56.184Z,38.35
2022-12-04T08:31:28.024Z,37.94
2022-12-04T08:37:59.351Z,37.87
2022-12-04T08:44:25.148Z,37.22
2022-12-04T08:50:55.237Z,38.22
2022-12-04T08:57:28.255Z,38.37
2022-12-04T09:04:06.760Z,38.7
2022-12-04T09:10:44.602Z,37.96
2022-12-04T09:17:15.539Z,37.63
2022-12-04T09:23:45.972Z,37.18
2022-12-04T09:30:21.388Z,37.12
2022-12-04T09:36:51.489Z,37.1
2022-12-04T09:43:35.507Z,36.4
2022-12-04T09:50:45.483Z,36.8
2022-12-04T09:57:37.498Z,37.05
2022-12-04T10:04:30.669Z,38.66
2022-12-04T10:11:41.727Z,38.32
2022-12-04T10:18:45.239Z,37.7
2022-12-04T10:25:52.660Z,37.69
2022-12-04T10:32:54.803Z,36.64
2022-12-04T10:40:01.234Z,36.73
2022-12-04T10:47:02.756Z,37.18
2022-12-04T10:53:49.553Z,36.92
2022-12-04T11:00:29.319Z,37.08
2022-12-04T11:07:38.139Z,36.74
2022-12-04T11:14:47.769Z,37.96
2022-12-04T11:21:41.834Z,36.46
2022-12-04T11:28:43.149Z,36.99
2022-12-04T11:35:37.949Z,36.66
2022-12-04T11:42:13.550Z,37.02
2022-12-04T11:49:19.526Z,37.47
2022-12-04T11:56:21.962Z,37.74
2022-12-04T12:03:31.037Z,37.39
2022-12-04T12:10:45.447Z,37.71
2022-12-04T12:17:39.695Z,37.74
2022-12-04T12:24:35.495Z,37.91
2022-12-04T12:31:27.901Z,36.9
2022-12-04T12:38:26.323Z,36.35
2022-12-04T12:45:47.879Z,36.82
2022-12-04T12:53:13.305Z,37.04
2022-12-04T13:00:17.400Z,37.16
2022-12-04T13:07:20.786Z,37.38
2022-12-04T13:14:28.543Z,37.33
2022-12-04T13:21:26.797Z,37.59
2022-12-04T13:28:39.717Z,37.83
2022-12-04T13:35:54.761Z,37.74
2022-12-04T13:42:56.298Z,37.66
2022-12-04T13:50:07.401Z,37.62
2022-12-04T13:57:19.333Z,37.72
2022-12-04T14:04:26.830Z,37.71
2022-12-04T14:11:42.779Z,37.15
2022-12-04T14:18:47.390Z,37.34
2022-12-04T14:25:54.361Z,37.46
2022-12-04T14:32:52.978Z,37.58
2022-12-04T14:39:51.900Z,37.47
2022-12-04T14:46:50.823Z,37.84
2022-12-04T14:54:03.194Z,37.93
2022-12-04T15:01:05.544Z,37.97
2022-12-04T15:07:55.807Z,38.13
2022-12-04T15:14:49.712Z,38.08
2022-12-04T15:21:34.814Z,37.8
2022-12-04T15:28:15.679Z,38.06
2022-12-04T15:35:17.530Z,38.02
2022-12-04T15:42:18.411Z,38.07
2022-12-04T15:49:04.650Z,38.02
2022-12-04T15:55:54.896Z,37.98
2022-12-04T16:03:00.210Z,38.02
2022-12-04T16:09:51.928Z,38
2022-12-04T16:16:47.426Z,38.03
2022-12-04T16:23:37.102Z,38.16
2022-12-04T16:30:10.860Z,38.21
2022-12-04T16:36:50.389Z,38.17
2022-12-04T16:43:25.387Z,38.1
2022-12-04T16:50:05.151Z,38.19
2022-12-04T16:56:41.039Z,38.28
2022-12-04T17:03:12.566Z,38.17
2022-12-04T17:09:49.242Z,38.28
2022-12-04T17:16:20.650Z,38.29
2022-12-04T17:22:47.850Z,38.22
2022-12-04T17:29:17.043Z,38.28
2022-12-04T17:35:54.040Z,38.26
2022-12-04T17:42:17.536Z,38.32
2022-12-04T17:48:53.006Z,38.28
2022-12-04T17:55:23.749Z,38.32
2022-12-04T18:01:59.547Z,38.16
2022-12-04T18:08:23.952Z,38.12
2022-12-04T18:15:00.403Z,38.02
2022-12-04T18:21:32.605Z,38.23
2022-12-04T18:27:57.784Z,38.04
2022-12-04T18:34:42.916Z,37.93
2022-12-04T18:41:16.574Z,37.99
2022-12-04T18:47:46.912Z,38.15
2022-12-04T18:54:20.552Z,38.06
2022-12-04T19:00:50.154Z,38.12
2022-12-04T19:07:18.922Z,38.19
2022-12-04T19:13:46.895Z,38.13
2022-12-04T19:20:11.702Z,38.28
2022-12-04T19:26:35.723Z,38.19
2022-12-04T19:33:10.898Z,38.29
2022-12-04T19:39:48.581Z,38.2
2022-12-04T19:46:27.715Z,38
2022-12-04T19:53:00.739Z,38.28
2022-12-04T19:59:38.692Z,38.15
2022-12-04T20:06:15.984Z,38.21
2022-12-04T20:12:52.581Z,38.24
2022-12-04T20:19:32.160Z,38.19
2022-12-04T20:26:10.628Z,38.08
2022-12-04T20:32:50.040Z,38.12
2022-12-04T20:39:19.818Z,38.2
2022-12-04T20:45:52.121Z,38.15
2022-12-04T20:52:38.580Z,38.16
2022-12-04T20:59:04.471Z,38.24
2022-12-04T21:05:40.779Z,38.23
2022-12-04T21:12:22.930Z,38.23
2022-12-04T21:18:59.624Z,38.37
2022-12-04T21:25:36.777Z,38.25
2022-12-04T21:32:06.277Z,38.35
2022-12-04T21:38:37.261Z,38.29
2022-12-04T21:45:05.855Z,38.31
2022-12-04T21:51:58.600Z,38.36
2022-12-04T21:58:32.237Z,38.21
2022-12-04T22:05:00.681Z,38.32
2022-12-04T22:11:30.466Z,38.27
2022-12-04T22:18:10.650Z,38.26
2022-12-04T22:24:42.159Z,38.33
2022-12-04T22:31:11.118Z,38.31
2022-12-04T22:37:44.463Z,38.06
2022-12-04T22:44:19.003Z,38.19
2022-12-04T22:50:52.183Z,37.97
2022-12-04T22:57:28.302Z,38.07
2022-12-04T23:03:53.168Z,37.96
2022-12-04T23:10:22.582Z,38.08
2022-12-04T23:16:55.918Z,38.25
2022-12-04T23:23:21.617Z,38.24
2022-12-04T23:29:57.212Z,38.32
2022-12-04T23:36:35.004Z,38.29
2022-12-04T23:43:11.066Z,38.3
2022-12-04T23:49:41.679Z,38.08
2022-12-04T23:56:08.194Z,38.16
